sensor_id;sensor_type;location;lat;lon;timestamp;P1;durP1;ratioP1;P2;durP2;ratioP2
25479;SDS011;13393;49.378;8.686;2022-08-25T00:01:08;5.18;;;3.20;;
25479;SDS011;13393;49.378;8.686;2022-08-25T00:03:36;3.15;;;2.95;;
25479;SDS011;13393;49.378;8.686;2022-08-25T00:06:03;3.35;;;2.97;;
25479;SDS011;13393;49.378;8.686;2022-08-25T00:08:29;4.32;;;3.05;;
25479;SDS011;13393;49.378;8.686;2022-08-25T00:10:55;3.17;;;2.97;;
25479;SDS011;13393;49.378;8.686;2022-08-25T00:13:22;4.60;;;3.22;;
25479;SDS011;13393;49.378;8.686;2022-08-25T00:15:48;4.72;;;2.95;;
25479;SDS011;13393;49.378;8.686;2022-08-25T00:18:15;3.55;;;2.90;;
25479;SDS011;13393;49.378;8.686;2022-08-25T00:20:44;5.05;;;3.33;;
25479;SDS011;13393;49.378;8.686;2022-08-25T00:23:11;5.07;;;3.42;;
25479;SDS011;13393;49.378;8.686;2022-08-25T00:25:37;4.80;;;3.30;;
25479;SDS011;13393;49.378;8.686;2022-08-25T00:28:04;6.55;;;3.88;;
25479;SDS011;13393;49.378;8.686;2022-08-25T00:30:30;7.78;;;3.75;;
25479;SDS011;13393;49.378;8.686;2022-08-25T00:32:57;3.70;;;3.38;;
25479;SDS011;13393;49.378;8.686;2022-08-25T00:35:23;3.50;;;3.20;;
25479;SDS011;13393;49.378;8.686;2022-08-25T00:37:52;4.25;;;3.63;;
25479;SDS011;13393;49.378;8.686;2022-08-25T00:40:18;5.00;;;3.72;;
25479;SDS011;13393;49.378;8.686;2022-08-25T00:42:45;3.65;;;3.33;;
25479;SDS011;13393;49.378;8.686;2022-08-25T00:45:11;4.72;;;3.80;;
25479;SDS011;13393;49.378;8.686;2022-08-25T00:47:38;4.30;;;3.63;;
25479;SDS011;13393;49.378;8.686;2022-08-25T00:50:06;4.57;;;4.10;;
25479;SDS011;13393;49.378;8.686;2022-08-25T00:52:35;4.03;;;3.63;;
25479;SDS011;13393;49.378;8.686;2022-08-25T00:55:05;5.75;;;4.22;;
25479;SDS011;13393;49.378;8.686;2022-08-25T00:57:33;4.20;;;3.47;;
25479;SDS011;13393;49.378;8.686;2022-08-25T01:00:00;4.40;;;4.00;;
25479;SDS011;13393;49.378;8.686;2022-08-25T01:02:27;4.15;;;3.60;;
25479;SDS011;13393;49.378;8.686;2022-08-25T01:04:54;4.20;;;3.83;;
25479;SDS011;13393;49.378;8.686;2022-08-25T01:07:20;5.15;;;3.85;;
25479;SDS011;13393;49.378;8.686;2022-08-25T01:09:48;5.05;;;3.72;;
25479;SDS011;13393;49.378;8.686;2022-08-25T01:12:16;4.30;;;3.90;;
25479;SDS011;13393;49.378;8.686;2022-08-25T01:14:43;4.40;;;4.00;;
25479;SDS011;13393;49.378;8.686;2022-08-25T01:17:11;4.88;;;4.15;;
25479;SDS011;13393;49.378;8.686;2022-08-25T01:19:37;4.25;;;3.85;;
25479;SDS011;13393;49.378;8.686;2022-08-25T01:22:05;4.53;;;4.10;;
25479;SDS011;13393;49.378;8.686;2022-08-25T01:24:34;6.30;;;4.25;;
25479;SDS011;13393;49.378;8.686;2022-08-25T01:27:02;4.88;;;4.38;;
25479;SDS011;13393;49.378;8.686;2022-08-25T01:29:29;4.80;;;4.40;;
25479;SDS011;13393;49.378;8.686;2022-08-25T01:31:56;4.93;;;4.53;;
25479;SDS011;13393;49.378;8.686;2022-08-25T01:34:24;4.47;;;4.07;;
25479;SDS011;13393;49.378;8.686;2022-08-25T01:36:50;6.18;;;3.90;;
25479;SDS011;13393;49.378;8.686;2022-08-25T01:39:19;5.50;;;4.22;;
25479;SDS011;13393;49.378;8.686;2022-08-25T01:41:49;6.70;;;4.25;;
25479;SDS011;13393;49.378;8.686;2022-08-25T01:44:19;5.47;;;4.53;;
25479;SDS011;13393;49.378;8.686;2022-08-25T01:46:46;5.20;;;3.83;;
25479;SDS011;13393;49.378;8.686;2022-08-25T01:49:12;6.88;;;4.60;;
25479;SDS011;13393;49.378;8.686;2022-08-25T01:51:41;5.43;;;4.93;;
25479;SDS011;13393;49.378;8.686;2022-08-25T01:54:08;4.70;;;4.18;;
25479;SDS011;13393;49.378;8.686;2022-08-25T01:56:35;6.07;;;4.40;;
25479;SDS011;13393;49.378;8.686;2022-08-25T01:59:02;5.88;;;4.43;;
25479;SDS011;13393;49.378;8.686;2022-08-25T02:01:28;4.63;;;4.22;;
25479;SDS011;13393;49.378;8.686;2022-08-25T02:03:56;7.30;;;4.50;;
25479;SDS011;13393;49.378;8.686;2022-08-25T02:06:24;5.72;;;4.80;;
25479;SDS011;13393;49.378;8.686;2022-08-25T02:08:51;7.53;;;5.18;;
25479;SDS011;13393;49.378;8.686;2022-08-25T02:11:17;4.70;;;4.30;;
25479;SDS011;13393;49.378;8.686;2022-08-25T02:13:45;5.22;;;4.72;;
25479;SDS011;13393;49.378;8.686;2022-08-25T02:16:14;5.50;;;4.55;;
25479;SDS011;13393;49.378;8.686;2022-08-25T02:18:42;5.25;;;4.75;;
25479;SDS011;13393;49.378;8.686;2022-08-25T02:21:09;5.20;;;4.63;;
25479;SDS011;13393;49.378;8.686;2022-08-25T02:23:36;5.63;;;5.03;;
25479;SDS011;13393;49.378;8.686;2022-08-25T02:26:03;5.03;;;4.55;;
25479;SDS011;13393;49.378;8.686;2022-08-25T02:28:29;8.50;;;4.93;;
25479;SDS011;13393;49.378;8.686;2022-08-25T02:30:57;5.90;;;4.65;;
25479;SDS011;13393;49.378;8.686;2022-08-25T02:33:24;5.65;;;5.15;;
25479;SDS011;13393;49.378;8.686;2022-08-25T02:35:50;5.47;;;4.97;;
25479;SDS011;13393;49.378;8.686;2022-08-25T02:38:16;6.10;;;4.97;;
25479;SDS011;13393;49.378;8.686;2022-08-25T02:40:43;5.78;;;4.95;;
25479;SDS011;13393;49.378;8.686;2022-08-25T02:43:09;5.95;;;5.10;;
25479;SDS011;13393;49.378;8.686;2022-08-25T02:45:36;5.88;;;5.07;;
25479;SDS011;13393;49.378;8.686;2022-08-25T02:48:03;6.68;;;5.18;;
25479;SDS011;13393;49.378;8.686;2022-08-25T02:50:30;7.03;;;5.45;;
25479;SDS011;13393;49.378;8.686;2022-08-25T02:52:56;8.48;;;5.72;;
25479;SDS011;13393;49.378;8.686;2022-08-25T02:55:23;6.63;;;5.28;;
25479;SDS011;13393;49.378;8.686;2022-08-25T02:57:49;6.40;;;5.80;;
25479;SDS011;13393;49.378;8.686;2022-08-25T03:00:16;5.82;;;5.32;;
25479;SDS011;13393;49.378;8.686;2022-08-25T03:02:42;6.15;;;5.25;;
25479;SDS011;13393;49.378;8.686;2022-08-25T03:05:11;5.70;;;5.15;;
25479;SDS011;13393;49.378;8.686;2022-08-25T03:07:38;5.82;;;5.22;;
25479;SDS011;13393;49.378;8.686;2022-08-25T03:10:05;6.75;;;5.43;;
25479;SDS011;13393;49.378;8.686;2022-08-25T03:12:32;7.25;;;5.53;;
25479;SDS011;13393;49.378;8.686;2022-08-25T03:14:58;5.78;;;5.20;;
25479;SDS011;13393;49.378;8.686;2022-08-25T03:17:24;6.47;;;5.03;;
25479;SDS011;13393;49.378;8.686;2022-08-25T03:19:51;6.28;;;5.47;;
25479;SDS011;13393;49.378;8.686;2022-08-25T03:22:18;5.70;;;5.20;;
25479;SDS011;13393;49.378;8.686;2022-08-25T03:24:45;5.80;;;5.20;;
25479;SDS011;13393;49.378;8.686;2022-08-25T03:27:11;6.68;;;5.20;;
25479;SDS011;13393;49.378;8.686;2022-08-25T03:29:37;5.72;;;5.07;;
25479;SDS011;13393;49.378;8.686;2022-08-25T03:32:05;5.88;;;5.30;;
25479;SDS011;13393;49.378;8.686;2022-08-25T03:34:31;6.70;;;5.10;;
25479;SDS011;13393;49.378;8.686;2022-08-25T03:36:58;7.20;;;5.25;;
25479;SDS011;13393;49.378;8.686;2022-08-25T03:39:26;6.00;;;5.40;;
25479;SDS011;13393;49.378;8.686;2022-08-25T03:41:53;7.82;;;5.47;;
25479;SDS011;13393;49.378;8.686;2022-08-25T03:44:19;7.40;;;5.45;;
25479;SDS011;13393;49.378;8.686;2022-08-25T03:46:47;6.25;;;5.43;;
25479;SDS011;13393;49.378;8.686;2022-08-25T03:49:15;5.88;;;5.18;;
25479;SDS011;13393;49.378;8.686;2022-08-25T03:51:44;5.40;;;4.90;;
25479;SDS011;13393;49.378;8.686;2022-08-25T03:54:11;6.55;;;5.90;;
25479;SDS011;13393;49.378;8.686;2022-08-25T03:56:38;8.02;;;5.30;;
25479;SDS011;13393;49.378;8.686;2022-08-25T03:59:05;5.90;;;5.30;;
25479;SDS011;13393;49.378;8.686;2022-08-25T04:01:33;8.60;;;5.25;;
25479;SDS011;13393;49.378;8.686;2022-08-25T04:03:59;6.20;;;5.47;;
25479;SDS011;13393;49.378;8.686;2022-08-25T04:06:25;7.97;;;5.20;;
25479;SDS011;13393;49.378;8.686;2022-08-25T04:08:52;6.03;;;5.43;;
25479;SDS011;13393;49.378;8.686;2022-08-25T04:11:19;5.88;;;5.18;;
25479;SDS011;13393;49.378;8.686;2022-08-25T04:13:47;5.53;;;5.00;;
25479;SDS011;13393;49.378;8.686;2022-08-25T04:16:14;5.95;;;5.15;;
25479;SDS011;13393;49.378;8.686;2022-08-25T04:18:41;14.02;;;5.82;;
25479;SDS011;13393;49.378;8.686;2022-08-25T04:21:08;7.50;;;5.65;;
25479;SDS011;13393;49.378;8.686;2022-08-25T04:23:35;6.07;;;4.97;;
25479;SDS011;13393;49.378;8.686;2022-08-25T04:26:06;5.57;;;5.03;;
25479;SDS011;13393;49.378;8.686;2022-08-25T04:28:35;6.32;;;5.72;;
25479;SDS011;13393;49.378;8.686;2022-08-25T04:31:05;6.03;;;5.43;;
25479;SDS011;13393;49.378;8.686;2022-08-25T04:33:32;5.70;;;5.20;;
25479;SDS011;13393;49.378;8.686;2022-08-25T04:35:58;7.25;;;6.18;;
25479;SDS011;13393;49.378;8.686;2022-08-25T04:38:24;7.53;;;5.20;;
25479;SDS011;13393;49.378;8.686;2022-08-25T04:40:54;5.32;;;4.82;;
25479;SDS011;13393;49.378;8.686;2022-08-25T04:43:20;7.53;;;5.65;;
25479;SDS011;13393;49.378;8.686;2022-08-25T04:45:47;7.30;;;5.43;;
25479;SDS011;13393;49.378;8.686;2022-08-25T04:48:14;6.50;;;5.40;;
25479;SDS011;13393;49.378;8.686;2022-08-25T04:50:41;6.10;;;5.15;;
25479;SDS011;13393;49.378;8.686;2022-08-25T04:53:07;6.28;;;4.78;;
25479;SDS011;13393;49.378;8.686;2022-08-25T04:55:38;5.75;;;5.15;;
25479;SDS011;13393;49.378;8.686;2022-08-25T04:58:04;8.70;;;5.63;;
25479;SDS011;13393;49.378;8.686;2022-08-25T05:00:32;8.05;;;5.72;;
25479;SDS011;13393;49.378;8.686;2022-08-25T05:02:59;8.55;;;5.45;;
25479;SDS011;13393;49.378;8.686;2022-08-25T05:05:27;6.82;;;5.13;;
25479;SDS011;13393;49.378;8.686;2022-08-25T05:07:54;5.53;;;4.93;;
25479;SDS011;13393;49.378;8.686;2022-08-25T05:10:20;7.07;;;4.97;;
25479;SDS011;13393;49.378;8.686;2022-08-25T05:12:47;6.05;;;5.10;;
25479;SDS011;13393;49.378;8.686;2022-08-25T05:15:13;6.13;;;5.20;;
25479;SDS011;13393;49.378;8.686;2022-08-25T05:17:57;5.43;;;4.93;;
25479;SDS011;13393;49.378;8.686;2022-08-25T05:20:23;6.28;;;4.63;;
25479;SDS011;13393;49.378;8.686;2022-08-25T05:22:52;6.22;;;4.68;;
25479;SDS011;13393;49.378;8.686;2022-08-25T05:25:18;9.02;;;5.72;;
25479;SDS011;13393;49.378;8.686;2022-08-25T05:27:44;10.43;;;5.60;;
25479;SDS011;13393;49.378;8.686;2022-08-25T05:30:11;11.13;;;5.78;;
25479;SDS011;13393;49.378;8.686;2022-08-25T05:32:37;6.15;;;5.55;;
25479;SDS011;13393;49.378;8.686;2022-08-25T05:35:04;10.85;;;5.57;;
25479;SDS011;13393;49.378;8.686;2022-08-25T05:37:31;9.82;;;6.15;;
25479;SDS011;13393;49.378;8.686;2022-08-25T05:39:59;12.25;;;6.25;;
25479;SDS011;13393;49.378;8.686;2022-08-25T05:42:25;9.43;;;6.32;;
25479;SDS011;13393;49.378;8.686;2022-08-25T05:44:52;8.80;;;6.13;;
25479;SDS011;13393;49.378;8.686;2022-08-25T05:47:18;7.07;;;6.03;;
25479;SDS011;13393;49.378;8.686;2022-08-25T05:49:45;6.80;;;6.10;;
25479;SDS011;13393;49.378;8.686;2022-08-25T05:52:11;10.85;;;6.57;;
25479;SDS011;13393;49.378;8.686;2022-08-25T05:54:38;9.98;;;6.75;;
25479;SDS011;13393;49.378;8.686;2022-08-25T05:57:06;8.50;;;6.28;;
25479;SDS011;13393;49.378;8.686;2022-08-25T05:59:33;10.07;;;7.03;;
25479;SDS011;13393;49.378;8.686;2022-08-25T06:01:59;9.45;;;7.10;;
25479;SDS011;13393;49.378;8.686;2022-08-25T06:04:43;8.18;;;6.78;;
25479;SDS011;13393;49.378;8.686;2022-08-25T06:07:10;9.23;;;6.65;;
25479;SDS011;13393;49.378;8.686;2022-08-25T06:09:36;11.38;;;6.32;;
25479;SDS011;13393;49.378;8.686;2022-08-25T06:12:02;8.13;;;6.43;;
25479;SDS011;13393;49.378;8.686;2022-08-25T06:14:30;11.02;;;6.72;;
25479;SDS011;13393;49.378;8.686;2022-08-25T06:16:57;6.95;;;5.95;;
25479;SDS011;13393;49.378;8.686;2022-08-25T06:19:24;6.32;;;5.65;;
25479;SDS011;13393;49.378;8.686;2022-08-25T06:21:54;8.45;;;6.68;;
25479;SDS011;13393;49.378;8.686;2022-08-25T06:24:21;7.78;;;6.32;;
25479;SDS011;13393;49.378;8.686;2022-08-25T06:26:47;6.18;;;5.63;;
25479;SDS011;13393;49.378;8.686;2022-08-25T06:29:14;6.50;;;5.57;;
25479;SDS011;13393;49.378;8.686;2022-08-25T06:31:42;7.30;;;5.40;;
25479;SDS011;13393;49.378;8.686;2022-08-25T06:34:09;7.53;;;5.80;;
25479;SDS011;13393;49.378;8.686;2022-08-25T06:36:35;6.03;;;5.45;;
25479;SDS011;13393;49.378;8.686;2022-08-25T06:39:02;6.70;;;5.57;;
25479;SDS011;13393;49.378;8.686;2022-08-25T06:41:29;6.82;;;5.88;;
25479;SDS011;13393;49.378;8.686;2022-08-25T06:43:56;7.10;;;6.22;;
25479;SDS011;13393;49.378;8.686;2022-08-25T06:46:23;5.85;;;5.25;;
25479;SDS011;13393;49.378;8.686;2022-08-25T06:48:52;6.15;;;5.50;;
25479;SDS011;13393;49.378;8.686;2022-08-25T06:51:20;7.28;;;5.60;;
25479;SDS011;13393;49.378;8.686;2022-08-25T06:53:47;5.82;;;5.22;;
25479;SDS011;13393;49.378;8.686;2022-08-25T06:56:14;8.38;;;5.93;;
25479;SDS011;13393;49.378;8.686;2022-08-25T06:58:41;9.98;;;5.90;;
25479;SDS011;13393;49.378;8.686;2022-08-25T07:01:08;10.70;;;5.68;;
25479;SDS011;13393;49.378;8.686;2022-08-25T07:03:35;8.57;;;5.45;;
25479;SDS011;13393;49.378;8.686;2022-08-25T07:06:03;7.72;;;5.68;;
25479;SDS011;13393;49.378;8.686;2022-08-25T07:08:29;8.00;;;5.78;;
25479;SDS011;13393;49.378;8.686;2022-08-25T07:10:56;6.88;;;5.65;;
25479;SDS011;13393;49.378;8.686;2022-08-25T07:13:22;7.18;;;5.95;;
25479;SDS011;13393;49.378;8.686;2022-08-25T07:15:51;6.32;;;5.63;;
25479;SDS011;13393;49.378;8.686;2022-08-25T07:18:18;7.20;;;6.15;;
25479;SDS011;13393;49.378;8.686;2022-08-25T07:20:44;5.68;;;5.18;;
25479;SDS011;13393;49.378;8.686;2022-08-25T07:23:12;5.95;;;5.45;;
25479;SDS011;13393;49.378;8.686;2022-08-25T07:25:38;7.00;;;5.20;;
25479;SDS011;13393;49.378;8.686;2022-08-25T07:28:05;5.53;;;5.03;;
25479;SDS011;13393;49.378;8.686;2022-08-25T07:30:31;5.65;;;5.15;;
25479;SDS011;13393;49.378;8.686;2022-08-25T07:32:57;7.60;;;5.40;;
25479;SDS011;13393;49.378;8.686;2022-08-25T07:35:24;6.78;;;5.55;;
25479;SDS011;13393;49.378;8.686;2022-08-25T07:37:52;5.88;;;5.25;;
25479;SDS011;13393;49.378;8.686;2022-08-25T07:40:22;6.10;;;5.40;;
25479;SDS011;13393;49.378;8.686;2022-08-25T07:42:49;5.80;;;5.30;;
25479;SDS011;13393;49.378;8.686;2022-08-25T07:45:16;5.72;;;4.53;;
25479;SDS011;13393;49.378;8.686;2022-08-25T07:47:43;5.60;;;5.10;;
25479;SDS011;13393;49.378;8.686;2022-08-25T07:50:10;5.75;;;5.00;;
25479;SDS011;13393;49.378;8.686;2022-08-25T07:52:37;6.72;;;5.00;;
25479;SDS011;13393;49.378;8.686;2022-08-25T07:55:04;5.32;;;4.93;;
25479;SDS011;13393;49.378;8.686;2022-08-25T07:57:32;8.50;;;5.03;;
25479;SDS011;13393;49.378;8.686;2022-08-25T08:00:01;5.45;;;4.95;;
25479;SDS011;13393;49.378;8.686;2022-08-25T08:02:27;5.32;;;4.82;;
25479;SDS011;13393;49.378;8.686;2022-08-25T08:04:54;5.25;;;4.85;;
25479;SDS011;13393;49.378;8.686;2022-08-25T08:07:21;4.80;;;4.32;;
25479;SDS011;13393;49.378;8.686;2022-08-25T08:09:47;5.40;;;4.80;;
25479;SDS011;13393;49.378;8.686;2022-08-25T08:12:14;7.40;;;5.10;;
25479;SDS011;13393;49.378;8.686;2022-08-25T08:14:41;5.70;;;4.97;;
25479;SDS011;13393;49.378;8.686;2022-08-25T08:17:08;5.30;;;4.78;;
25479;SDS011;13393;49.378;8.686;2022-08-25T08:19:35;5.28;;;4.32;;
25479;SDS011;13393;49.378;8.686;2022-08-25T08:22:01;6.20;;;4.50;;
25479;SDS011;13393;49.378;8.686;2022-08-25T08:24:28;7.97;;;4.10;;
25479;SDS011;13393;49.378;8.686;2022-08-25T08:26:54;5.38;;;4.85;;
25479;SDS011;13393;49.378;8.686;2022-08-25T08:29:21;6.53;;;4.95;;
25479;SDS011;13393;49.378;8.686;2022-08-25T08:31:48;4.93;;;4.43;;
25479;SDS011;13393;49.378;8.686;2022-08-25T08:34:15;9.38;;;4.40;;
25479;SDS011;13393;49.378;8.686;2022-08-25T08:36:42;5.30;;;4.78;;
25479;SDS011;13393;49.378;8.686;2022-08-25T08:39:08;5.25;;;4.85;;
25479;SDS011;13393;49.378;8.686;2022-08-25T08:41:47;7.68;;;4.55;;
25479;SDS011;13393;49.378;8.686;2022-08-25T08:44:38;5.70;;;4.20;;
25479;SDS011;13393;49.378;8.686;2022-08-25T08:47:09;4.28;;;3.88;;
25479;SDS011;13393;49.378;8.686;2022-08-25T08:49:38;6.55;;;4.40;;
25479;SDS011;13393;49.378;8.686;2022-08-25T08:52:05;5.57;;;4.40;;
25479;SDS011;13393;49.378;8.686;2022-08-25T08:54:34;5.95;;;4.38;;
25479;SDS011;13393;49.378;8.686;2022-08-25T08:57:03;5.65;;;4.10;;
25479;SDS011;13393;49.378;8.686;2022-08-25T08:59:32;5.78;;;4.50;;
25479;SDS011;13393;49.378;8.686;2022-08-25T09:02:06;5.47;;;4.65;;
25479;SDS011;13393;49.378;8.686;2022-08-25T09:04:39;5.72;;;4.38;;
25479;SDS011;13393;49.378;8.686;2022-08-25T09:07:09;5.95;;;4.03;;
25479;SDS011;13393;49.378;8.686;2022-08-25T09:09:36;6.70;;;4.30;;
25479;SDS011;13393;49.378;8.686;2022-08-25T09:12:09;6.22;;;4.38;;
25479;SDS011;13393;49.378;8.686;2022-08-25T09:14:38;5.47;;;4.28;;
25479;SDS011;13393;49.378;8.686;2022-08-25T09:17:10;6.78;;;4.40;;
25479;SDS011;13393;49.378;8.686;2022-08-25T09:22:40;6.07;;;3.95;;
25479;SDS011;13393;49.378;8.686;2022-08-25T09:25:12;6.00;;;4.20;;
25479;SDS011;13393;49.378;8.686;2022-08-25T09:27:42;4.80;;;4.30;;
25479;SDS011;13393;49.378;8.686;2022-08-25T09:30:13;4.50;;;4.10;;
25479;SDS011;13393;49.378;8.686;2022-08-25T09:32:40;6.30;;;4.15;;
25479;SDS011;13393;49.378;8.686;2022-08-25T09:35:09;7.95;;;4.28;;
25479;SDS011;13393;49.378;8.686;2022-08-25T09:37:42;4.30;;;3.90;;
25479;SDS011;13393;49.378;8.686;2022-08-25T09:40:08;4.55;;;4.15;;
25479;SDS011;13393;49.378;8.686;2022-08-25T09:42:46;5.72;;;3.90;;
25479;SDS011;13393;49.378;8.686;2022-08-25T09:45:13;4.57;;;4.20;;
25479;SDS011;13393;49.378;8.686;2022-08-25T09:47:41;6.28;;;4.35;;
25479;SDS011;13393;49.378;8.686;2022-08-25T09:50:07;4.40;;;3.92;;
25479;SDS011;13393;49.378;8.686;2022-08-25T09:52:39;4.03;;;3.55;;
25479;SDS011;13393;49.378;8.686;2022-08-25T09:55:21;5.22;;;3.90;;
25479;SDS011;13393;49.378;8.686;2022-08-25T09:57:50;3.90;;;3.50;;
25479;SDS011;13393;49.378;8.686;2022-08-25T10:00:17;4.05;;;3.30;;
25479;SDS011;13393;49.378;8.686;2022-08-25T10:02:45;4.10;;;3.80;;
25479;SDS011;13393;49.378;8.686;2022-08-25T10:05:25;5.90;;;4.13;;
25479;SDS011;13393;49.378;8.686;2022-08-25T10:07:53;4.72;;;3.88;;
25479;SDS011;13393;49.378;8.686;2022-08-25T10:10:23;4.45;;;3.78;;
25479;SDS011;13393;49.378;8.686;2022-08-25T10:12:52;4.63;;;4.22;;
25479;SDS011;13393;49.378;8.686;2022-08-25T10:15:25;4.72;;;4.13;;
25479;SDS011;13393;49.378;8.686;2022-08-25T10:17:52;4.15;;;3.63;;
25479;SDS011;13393;49.378;8.686;2022-08-25T10:20:20;4.80;;;4.20;;
25479;SDS011;13393;49.378;8.686;2022-08-25T10:22:47;5.85;;;3.80;;
25479;SDS011;13393;49.378;8.686;2022-08-25T10:25:14;5.30;;;4.40;;
25479;SDS011;13393;49.378;8.686;2022-08-25T10:27:43;5.55;;;4.20;;
25479;SDS011;13393;49.378;8.686;2022-08-25T10:30:14;4.63;;;4.22;;
25479;SDS011;13393;49.378;8.686;2022-08-25T10:32:46;5.25;;;3.95;;
25479;SDS011;13393;49.378;8.686;2022-08-25T10:35:20;5.55;;;3.85;;
25479;SDS011;13393;49.378;8.686;2022-08-25T10:37:50;3.90;;;3.60;;
25479;SDS011;13393;49.378;8.686;2022-08-25T10:40:20;8.52;;;4.65;;
25479;SDS011;13393;49.378;8.686;2022-08-25T10:42:53;6.75;;;3.60;;
25479;SDS011;13393;49.378;8.686;2022-08-25T10:48:09;4.10;;;3.60;;
25479;SDS011;13393;49.378;8.686;2022-08-25T10:50:42;5.30;;;3.75;;
25479;SDS011;13393;49.378;8.686;2022-08-25T10:53:12;6.15;;;4.00;;
25479;SDS011;13393;49.378;8.686;2022-08-25T10:55:42;5.18;;;3.88;;
25479;SDS011;13393;49.378;8.686;2022-08-25T10:58:13;8.80;;;4.10;;
25479;SDS011;13393;49.378;8.686;2022-08-25T11:00:43;5.25;;;3.88;;
25479;SDS011;13393;49.378;8.686;2022-08-25T11:03:16;4.68;;;3.50;;
25479;SDS011;13393;49.378;8.686;2022-08-25T11:05:45;3.97;;;3.30;;
25479;SDS011;13393;49.378;8.686;2022-08-25T11:08:14;4.07;;;3.63;;
25479;SDS011;13393;49.378;8.686;2022-08-25T11:10:43;4.15;;;3.00;;
25479;SDS011;13393;49.378;8.686;2022-08-25T11:13:15;3.88;;;3.55;;
25479;SDS011;13393;49.378;8.686;2022-08-25T11:15:49;3.80;;;3.40;;
25479;SDS011;13393;49.378;8.686;2022-08-25T11:18:16;5.80;;;3.72;;
25479;SDS011;13393;49.378;8.686;2022-08-25T11:20:45;3.95;;;3.50;;
25479;SDS011;13393;49.378;8.686;2022-08-25T11:23:14;4.00;;;3.53;;
25479;SDS011;13393;49.378;8.686;2022-08-25T11:25:42;3.47;;;3.17;;
25479;SDS011;13393;49.378;8.686;2022-08-25T11:28:10;3.00;;;2.80;;
25479;SDS011;13393;49.378;8.686;2022-08-25T11:30:39;3.67;;;3.25;;
25479;SDS011;13393;49.378;8.686;2022-08-25T11:33:05;3.72;;;3.45;;
25479;SDS011;13393;49.378;8.686;2022-08-25T11:35:38;4.18;;;3.60;;
25479;SDS011;13393;49.378;8.686;2022-08-25T11:38:11;3.35;;;3.10;;
25479;SDS011;13393;49.378;8.686;2022-08-25T11:40:43;3.30;;;3.00;;
25479;SDS011;13393;49.378;8.686;2022-08-25T11:43:22;3.67;;;3.22;;
25479;SDS011;13393;49.378;8.686;2022-08-25T11:45:56;5.50;;;3.60;;
25479;SDS011;13393;49.378;8.686;2022-08-25T11:48:27;3.45;;;3.15;;
25479;SDS011;13393;49.378;8.686;2022-08-25T11:50:59;5.25;;;3.38;;
25479;SDS011;13393;49.378;8.686;2022-08-25T11:53:26;6.75;;;3.47;;
25479;SDS011;13393;49.378;8.686;2022-08-25T11:55:54;4.40;;;3.00;;
25479;SDS011;13393;49.378;8.686;2022-08-25T11:58:33;3.80;;;3.03;;
25479;SDS011;13393;49.378;8.686;2022-08-25T12:01:05;3.28;;;3.08;;
25479;SDS011;13393;49.378;8.686;2022-08-25T12:06:27;7.90;;;3.50;;
25479;SDS011;13393;49.378;8.686;2022-08-25T12:11:49;3.25;;;3.05;;
25479;SDS011;13393;49.378;8.686;2022-08-25T12:14:31;3.65;;;2.80;;
25479;SDS011;13393;49.378;8.686;2022-08-25T12:17:10;2.97;;;2.78;;
25479;SDS011;13393;49.378;8.686;2022-08-25T12:19:49;3.33;;;3.03;;
25479;SDS011;13393;49.378;8.686;2022-08-25T12:25:02;4.55;;;2.92;;
25479;SDS011;13393;49.378;8.686;2022-08-25T12:27:31;4.00;;;3.15;;
25479;SDS011;13393;49.378;8.686;2022-08-25T12:30:03;5.28;;;3.42;;
25479;SDS011;13393;49.378;8.686;2022-08-25T12:32:37;4.45;;;3.17;;
25479;SDS011;13393;49.378;8.686;2022-08-25T12:35:18;6.22;;;3.60;;
25479;SDS011;13393;49.378;8.686;2022-08-25T12:37:59;4.95;;;3.25;;
25479;SDS011;13393;49.378;8.686;2022-08-25T12:40:27;6.63;;;3.58;;
25479;SDS011;13393;49.378;8.686;2022-08-25T12:43:08;3.63;;;3.33;;
25479;SDS011;13393;49.378;8.686;2022-08-25T12:45:37;5.28;;;3.40;;
25479;SDS011;13393;49.378;8.686;2022-08-25T12:50:55;9.15;;;3.05;;
25479;SDS011;13393;49.378;8.686;2022-08-25T12:53:24;3.83;;;3.13;;
25479;SDS011;13393;49.378;8.686;2022-08-25T12:55:53;3.22;;;2.92;;
25479;SDS011;13393;49.378;8.686;2022-08-25T12:58:22;4.60;;;3.22;;
25479;SDS011;13393;49.378;8.686;2022-08-25T13:00:54;3.33;;;2.78;;
25479;SDS011;13393;49.378;8.686;2022-08-25T13:03:51;6.80;;;2.90;;
25479;SDS011;13393;49.378;8.686;2022-08-25T13:06:28;6.20;;;2.83;;
25479;SDS011;13393;49.378;8.686;2022-08-25T13:09:07;4.43;;;3.30;;
25479;SDS011;13393;49.378;8.686;2022-08-25T13:11:43;3.50;;;3.20;;
25479;SDS011;13393;49.378;8.686;2022-08-25T13:14:14;3.40;;;3.00;;
25479;SDS011;13393;49.378;8.686;2022-08-25T13:16:50;3.13;;;2.67;;
25479;SDS011;13393;49.378;8.686;2022-08-25T13:19:17;4.68;;;3.45;;
25479;SDS011;13393;49.378;8.686;2022-08-25T13:21:45;3.08;;;2.85;;
25479;SDS011;13393;49.378;8.686;2022-08-25T13:24:13;4.10;;;3.28;;
25479;SDS011;13393;49.378;8.686;2022-08-25T13:26:42;3.17;;;2.97;;
25479;SDS011;13393;49.378;8.686;2022-08-25T13:29:12;4.28;;;3.40;;
25479;SDS011;13393;49.378;8.686;2022-08-25T13:31:48;7.35;;;3.25;;
25479;SDS011;13393;49.378;8.686;2022-08-25T13:34:16;2.70;;;2.50;;
25479;SDS011;13393;49.378;8.686;2022-08-25T13:36:43;2.92;;;2.60;;
25479;SDS011;13393;49.378;8.686;2022-08-25T13:39:29;2.85;;;2.65;;
25479;SDS011;13393;49.378;8.686;2022-08-25T13:41:57;3.30;;;3.00;;
25479;SDS011;13393;49.378;8.686;2022-08-25T13:44:24;5.82;;;2.75;;
25479;SDS011;13393;49.378;8.686;2022-08-25T13:47:03;4.47;;;2.60;;
25479;SDS011;13393;49.378;8.686;2022-08-25T13:49:30;18.02;;;3.65;;
25479;SDS011;13393;49.378;8.686;2022-08-25T13:51:57;15.73;;;3.60;;
25479;SDS011;13393;49.378;8.686;2022-08-25T13:54:24;8.77;;;2.83;;
25479;SDS011;13393;49.378;8.686;2022-08-25T13:56:52;2.83;;;2.50;;
25479;SDS011;13393;49.378;8.686;2022-08-25T13:59:19;5.38;;;2.63;;
25479;SDS011;13393;49.378;8.686;2022-08-25T14:01:47;6.72;;;2.53;;
25479;SDS011;13393;49.378;8.686;2022-08-25T14:04:21;2.60;;;2.40;;
25479;SDS011;13393;49.378;8.686;2022-08-25T14:07:03;5.97;;;2.22;;
25479;SDS011;13393;49.378;8.686;2022-08-25T14:09:34;2.63;;;2.42;;
25479;SDS011;13393;49.378;8.686;2022-08-25T14:12:02;3.75;;;2.50;;
25479;SDS011;13393;49.378;8.686;2022-08-25T14:14:30;4.90;;;2.63;;
25479;SDS011;13393;49.378;8.686;2022-08-25T14:17:00;2.33;;;2.22;;
25479;SDS011;13393;49.378;8.686;2022-08-25T14:19:27;2.45;;;2.20;;
25479;SDS011;13393;49.378;8.686;2022-08-25T14:21:53;3.83;;;2.40;;
25479;SDS011;13393;49.378;8.686;2022-08-25T14:24:23;2.70;;;1.90;;
25479;SDS011;13393;49.378;8.686;2022-08-25T14:26:51;3.40;;;2.20;;
25479;SDS011;13393;49.378;8.686;2022-08-25T14:29:19;5.20;;;2.55;;
25479;SDS011;13393;49.378;8.686;2022-08-25T14:31:46;2.30;;;2.08;;
25479;SDS011;13393;49.378;8.686;2022-08-25T14:34:13;3.58;;;2.10;;
25479;SDS011;13393;49.378;8.686;2022-08-25T14:36:40;4.25;;;2.20;;
25479;SDS011;13393;49.378;8.686;2022-08-25T14:39:07;3.33;;;2.42;;
25479;SDS011;13393;49.378;8.686;2022-08-25T14:41:34;2.85;;;1.98;;
25479;SDS011;13393;49.378;8.686;2022-08-25T14:44:01;2.53;;;2.08;;
25479;SDS011;13393;49.378;8.686;2022-08-25T14:46:31;7.57;;;2.70;;
25479;SDS011;13393;49.378;8.686;2022-08-25T14:48:59;2.53;;;2.33;;
25479;SDS011;13393;49.378;8.686;2022-08-25T14:51:26;5.15;;;2.08;;
25479;SDS011;13393;49.378;8.686;2022-08-25T14:53:53;2.53;;;2.00;;
25479;SDS011;13393;49.378;8.686;2022-08-25T14:56:21;3.28;;;1.92;;
25479;SDS011;13393;49.378;8.686;2022-08-25T14:58:47;2.42;;;2.20;;
25479;SDS011;13393;49.378;8.686;2022-08-25T15:01:14;6.10;;;2.40;;
25479;SDS011;13393;49.378;8.686;2022-08-25T15:03:43;2.13;;;2.03;;
25479;SDS011;13393;49.378;8.686;2022-08-25T15:06:10;4.90;;;2.25;;
25479;SDS011;13393;49.378;8.686;2022-08-25T15:08:37;3.90;;;2.40;;
25479;SDS011;13393;49.378;8.686;2022-08-25T15:13:47;2.72;;;2.13;;
25479;SDS011;13393;49.378;8.686;2022-08-25T15:16:14;2.95;;;2.20;;